sensor_id;sensor_type;location;lat;lon;timestamp;temperature;humidity
33460;DHT22;19795;53.160;6.612;2024-03-06T06:24:55;4.20;99.90
33460;DHT22;19795;53.160;6.612;2024-03-06T06:30:27;4.20;99.90
33460;DHT22;19795;53.160;6.612;2024-03-06T06:32:53;4.70;99.90
33460;DHT22;19795;53.160;6.612;2024-03-06T06:35:19;4.20;99.90
33460;DHT22;19795;53.160;6.612;2024-03-06T06:37:44;4.70;99.90
33460;DHT22;19795;53.160;6.612;2024-03-06T06:40:12;4.20;99.90
33460;DHT22;19795;53.160;6.612;2024-03-06T06:42:44;4.20;99.90
33460;DHT22;19795;53.160;6.612;2024-03-06T06:45:13;4.20;99.90
33460;DHT22;19795;53.160;6.612;2024-03-06T06:47:38;4.20;99.90
33460;DHT22;19795;53.160;6.612;2024-03-06T06:50:05;4.30;99.90
33460;DHT22;19795;53.160;6.612;2024-03-06T06:52:30;4.20;99.90
33460;DHT22;19795;53.160;6.612;2024-03-06T06:55:02;4.30;99.90
33460;DHT22;19795;53.160;6.612;2024-03-06T06:57:27;4.30;99.90
33460;DHT22;19795;53.160;6.612;2024-03-06T06:59:53;4.40;99.90
33460;DHT22;19795;53.160;6.612;2024-03-06T07:02:19;4.50;99.90
33460;DHT22;19795;53.160;6.612;2024-03-06T07:04:45;4.30;99.90
33460;DHT22;19795;53.160;6.612;2024-03-06T07:07:10;4.60;99.90
33460;DHT22;19795;53.160;6.612;2024-03-06T07:09:36;4.30;99.90
33460;DHT22;19795;53.160;6.612;2024-03-06T07:12:02;4.60;99.90
33460;DHT22;19795;53.160;6.612;2024-03-06T07:14:33;4.30;99.90
33460;DHT22;19795;53.160;6.612;2024-03-06T07:16:59;4.30;99.90
33460;DHT22;19795;53.160;6.612;2024-03-06T07:19:25;4.70;99.90
33460;DHT22;19795;53.160;6.612;2024-03-06T07:21:50;4.30;99.90
33460;DHT22;19795;53.160;6.612;2024-03-06T07:24:17;4.40;99.90
33460;DHT22;19795;53.160;6.612;2024-03-06T07:26:43;4.60;99.90
33460;DHT22;19795;53.160;6.612;2024-03-06T07:29:09;4.50;99.90
33460;DHT22;19795;53.160;6.612;2024-03-06T07:31:40;4.50;99.90
33460;DHT22;19795;53.160;6.612;2024-03-06T07:34:07;4.60;99.90
33460;DHT22;19795;53.160;6.612;2024-03-06T07:36:34;4.50;99.90
33460;DHT22;19795;53.160;6.612;2024-03-06T07:39:01;4.50;99.90
33460;DHT22;19795;53.160;6.612;2024-03-06T07:41:27;5.10;99.90
33460;DHT22;19795;53.160;6.612;2024-03-06T07:43:53;4.50;99.90
33460;DHT22;19795;53.160;6.612;2024-03-06T07:46:18;4.90;99.90
33460;DHT22;19795;53.160;6.612;2024-03-06T07:48:45;4.40;99.90
33460;DHT22;19795;53.160;6.612;2024-03-06T07:51:11;4.70;99.90
33460;DHT22;19795;53.160;6.612;2024-03-06T07:53:37;4.50;99.90
33460;DHT22;19795;53.160;6.612;2024-03-06T07:56:05;4.60;99.90
33460;DHT22;19795;53.160;6.612;2024-03-06T07:58:31;4.60;99.90
33460;DHT22;19795;53.160;6.612;2024-03-06T08:00:57;5.20;99.90
33460;DHT22;19795;53.160;6.612;2024-03-06T08:03:25;4.90;99.90
33460;DHT22;19795;53.160;6.612;2024-03-06T08:05:54;4.70;99.90
33460;DHT22;19795;53.160;6.612;2024-03-06T08:08:20;4.70;99.90
33460;DHT22;19795;53.160;6.612;2024-03-06T08:10:47;4.90;99.90
33460;DHT22;19795;53.160;6.612;2024-03-06T08:13:13;4.80;99.90
33460;DHT22;19795;53.160;6.612;2024-03-06T08:15:39;4.80;99.90
33460;DHT22;19795;53.160;6.612;2024-03-06T08:18:06;4.90;99.90
33460;DHT22;19795;53.160;6.612;2024-03-06T08:20:32;4.90;99.90
33460;DHT22;19795;53.160;6.612;2024-03-06T08:22:58;4.80;99.90
33460;DHT22;19795;53.160;6.612;2024-03-06T08:25:26;5.10;99.90
33460;DHT22;19795;53.160;6.612;2024-03-06T08:27:52;5.00;99.90
33460;DHT22;19795;53.160;6.612;2024-03-06T08:30:17;5.60;99.90
33460;DHT22;19795;53.160;6.612;2024-03-06T08:32:43;5.10;99.90
33460;DHT22;19795;53.160;6.612;2024-03-06T08:35:11;5.30;99.90
33460;DHT22;19795;53.160;6.612;2024-03-06T08:37:41;5.20;99.90
33460;DHT22;19795;53.160;6.612;2024-03-06T08:40:07;5.20;99.90
33460;DHT22;19795;53.160;6.612;2024-03-06T08:42:36;5.30;99.90
33460;DHT22;19795;53.160;6.612;2024-03-06T08:45:02;5.50;99.90
33460;DHT22;19795;53.160;6.612;2024-03-06T08:47:27;5.30;99.90
33460;DHT22;19795;53.160;6.612;2024-03-06T08:49:53;5.80;99.90
33460;DHT22;19795;53.160;6.612;2024-03-06T08:52:19;5.80;99.90
33460;DHT22;19795;53.160;6.612;2024-03-06T08:54:46;5.50;99.90
33460;DHT22;19795;53.160;6.612;2024-03-06T08:57:12;6.00;99.90
33460;DHT22;19795;53.160;6.612;2024-03-06T08:59:37;5.60;99.90
33460;DHT22;19795;53.160;6.612;2024-03-06T09:02:14;5.80;99.90
33460;DHT22;19795;53.160;6.612;2024-03-06T09:04:43;5.70;99.90
33460;DHT22;19795;53.160;6.612;2024-03-06T09:07:09;5.70;99.90
33460;DHT22;19795;53.160;6.612;2024-03-06T09:09:35;5.60;99.90
33460;DHT22;19795;53.160;6.612;2024-03-06T09:12:03;5.70;99.90
33460;DHT22;19795;53.160;6.612;2024-03-06T09:14:31;5.70;99.90
33460;DHT22;19795;53.160;6.612;2024-03-06T09:16:57;6.10;99.90
33460;DHT22;19795;53.160;6.612;2024-03-06T09:19:23;5.90;99.90
33460;DHT22;19795;53.160;6.612;2024-03-06T09:21:49;6.30;99.90
33460;DHT22;19795;53.160;6.612;2024-03-06T09:24:14;6.00;99.90
33460;DHT22;19795;53.160;6.612;2024-03-06T09:26:40;6.20;99.90
33460;DHT22;19795;53.160;6.612;2024-03-06T09:29:06;6.40;99.90
33460;DHT22;19795;53.160;6.612;2024-03-06T09:31:31;6.60;99.90
33460;DHT22;19795;53.160;6.612;2024-03-06T09:33:57;6.50;99.90
33460;DHT22;19795;53.160;6.612;2024-03-06T09:36:24;6.50;99.90
33460;DHT22;19795;53.160;6.612;2024-03-06T09:38:53;6.40;99.90
33460;DHT22;19795;53.160;6.612;2024-03-06T09:41:19;6.60;99.90
33460;DHT22;19795;53.160;6.612;2024-03-06T09:43:47;6.50;99.90
33460;DHT22;19795;53.160;6.612;2024-03-06T09:46:20;6.50;99.90
33460;DHT22;19795;53.160;6.612;2024-03-06T09:48:47;6.50;99.90
33460;DHT22;19795;53.160;6.612;2024-03-06T09:51:13;6.60;99.90
33460;DHT22;19795;53.160;6.612;2024-03-06T09:53:41;6.90;99.90
33460;DHT22;19795;53.160;6.612;2024-03-06T09:56:15;6.60;99.90
33460;DHT22;19795;53.160;6.612;2024-03-06T09:58:41;6.60;99.90
33460;DHT22;19795;53.160;6.612;2024-03-06T10:01:08;6.60;99.90
33460;DHT22;19795;53.160;6.612;2024-03-06T10:03:34;6.50;99.90
33460;DHT22;19795;53.160;6.612;2024-03-06T10:06:00;6.60;99.90
33460;DHT22;19795;53.160;6.612;2024-03-06T10:08:26;6.80;99.90
33460;DHT22;19795;53.160;6.612;2024-03-06T10:10:55;6.80;99.90
33460;DHT22;19795;53.160;6.612;2024-03-06T10:13:25;6.60;99.90
33460;DHT22;19795;53.160;6.612;2024-03-06T10:16:04;6.90;99.90
33460;DHT22;19795;53.160;6.612;2024-03-06T10:18:40;6.50;99.90
33460;DHT22;19795;53.160;6.612;2024-03-06T10:21:05;6.70;99.90
33460;DHT22;19795;53.160;6.612;2024-03-06T10:23:32;6.80;99.90
33460;DHT22;19795;53.160;6.612;2024-03-06T10:25:57;6.90;99.90
33460;DHT22;19795;53.160;6.612;2024-03-06T10:28:24;6.70;99.90
33460;DHT22;19795;53.160;6.612;2024-03-06T10:30:50;6.60;99.90
33460;DHT22;19795;53.160;6.612;2024-03-06T10:33:18;6.70;99.90
33460;DHT22;19795;53.160;6.612;2024-03-06T10:35:47;6.90;99.90
33460;DHT22;19795;53.160;6.612;2024-03-06T10:38:17;6.80;99.90
33460;DHT22;19795;53.160;6.612;2024-03-06T10:40:44;6.90;99.90
33460;DHT22;19795;53.160;6.612;2024-03-06T10:43:11;6.70;99.90
33460;DHT22;19795;53.160;6.612;2024-03-06T10:45:47;6.70;99.90
33460;DHT22;19795;53.160;6.612;2024-03-06T10:48:20;6.80;99.90
33460;DHT22;19795;53.160;6.612;2024-03-06T10:50:46;6.90;99.90
33460;DHT22;19795;53.160;6.612;2024-03-06T10:53:15;6.90;99.90
33460;DHT22;19795;53.160;6.612;2024-03-06T10:55:43;7.20;99.90
33460;DHT22;19795;53.160;6.612;2024-03-06T10:58:12;7.30;99.90
33460;DHT22;19795;53.160;6.612;2024-03-06T11:00:39;7.40;99.90
33460;DHT22;19795;53.160;6.612;2024-03-06T11:03:06;7.40;99.90
33460;DHT22;19795;53.160;6.612;2024-03-06T11:05:41;7.10;99.90
33460;DHT22;19795;53.160;6.612;2024-03-06T11:08:08;7.00;99.90
33460;DHT22;19795;53.160;6.612;2024-03-06T11:10:35;7.10;99.90
33460;DHT22;19795;53.160;6.612;2024-03-06T11:13:01;7.20;99.90
33460;DHT22;19795;53.160;6.612;2024-03-06T11:15:28;7.40;99.90
33460;DHT22;19795;53.160;6.612;2024-03-06T11:17:54;7.40;99.90
33460;DHT22;19795;53.160;6.612;2024-03-06T11:20:21;7.40;99.90
33460;DHT22;19795;53.160;6.612;2024-03-06T11:28:22;7.50;99.90
33460;DHT22;19795;53.160;6.612;2024-03-06T11:30:54;7.50;99.90
33460;DHT22;19795;53.160;6.612;2024-03-06T11:33:21;7.60;99.90
33460;DHT22;19795;53.160;6.612;2024-03-06T11:41:16;7.60;99.90
33460;DHT22;19795;53.160;6.612;2024-03-06T11:43:43;7.70;99.90
33460;DHT22;19795;53.160;6.612;2024-03-06T11:46:10;7.90;99.90
33460;DHT22;19795;53.160;6.612;2024-03-06T11:48:37;7.80;99.90
33460;DHT22;19795;53.160;6.612;2024-03-06T11:51:03;7.90;99.90
33460;DHT22;19795;53.160;6.612;2024-03-06T11:53:30;8.00;99.90
33460;DHT22;19795;53.160;6.612;2024-03-06T11:55:56;8.20;99.90
33460;DHT22;19795;53.160;6.612;2024-03-06T11:58:22;8.30;99.90
33460;DHT22;19795;53.160;6.612;2024-03-06T12:00:48;9.10;99.90
33460;DHT22;19795;53.160;6.612;2024-03-06T12:03:14;8.70;99.90
33460;DHT22;19795;53.160;6.612;2024-03-06T12:05:40;8.50;99.90
33460;DHT22;19795;53.160;6.612;2024-03-06T12:08:07;8.70;99.90
33460;DHT22;19795;53.160;6.612;2024-03-06T12:10:39;8.80;99.90
33460;DHT22;19795;53.160;6.612;2024-03-06T12:13:05;9.10;99.90
33460;DHT22;19795;53.160;6.612;2024-03-06T12:15:31;9.20;99.90
33460;DHT22;19795;53.160;6.612;2024-03-06T12:17:56;9.20;99.90
33460;DHT22;19795;53.160;6.612;2024-03-06T12:20:24;9.00;99.90
33460;DHT22;19795;53.160;6.612;2024-03-06T12:22:51;8.70;99.90
33460;DHT22;19795;53.160;6.612;2024-03-06T12:25:25;8.80;99.90
33460;DHT22;19795;53.160;6.612;2024-03-06T12:27:53;8.70;99.90
33460;DHT22;19795;53.160;6.612;2024-03-06T12:30:20;8.80;99.90
33460;DHT22;19795;53.160;6.612;2024-03-06T12:32:59;9.10;99.90
33460;DHT22;19795;53.160;6.612;2024-03-06T12:35:26;8.70;99.90
33460;DHT22;19795;53.160;6.612;2024-03-06T12:37:52;8.80;99.90
33460;DHT22;19795;53.160;6.612;2024-03-06T12:40:21;9.00;99.90
33460;DHT22;19795;53.160;6.612;2024-03-06T12:42:47;9.00;99.90
33460;DHT22;19795;53.160;6.612;2024-03-06T12:45:13;9.00;99.90
33460;DHT22;19795;53.160;6.612;2024-03-06T12:47:46;9.10;99.90
33460;DHT22;19795;53.160;6.612;2024-03-06T12:50:14;8.90;99.90
33460;DHT22;19795;53.160;6.612;2024-03-06T12:52:40;9.10;99.90
33460;DHT22;19795;53.160;6.612;2024-03-06T12:55:09;9.40;99.90
33460;DHT22;19795;53.160;6.612;2024-03-06T12:57:35;8.90;99.90
33460;DHT22;19795;53.160;6.612;2024-03-06T13:00:01;8.80;99.90
33460;DHT22;19795;53.160;6.612;2024-03-06T13:02:28;9.00;99.90
33460;DHT22;19795;53.160;6.612;2024-03-06T13:04:54;9.10;99.90
33460;DHT22;19795;53.160;6.612;2024-03-06T13:07:22;9.40;99.90
33460;DHT22;19795;53.160;6.612;2024-03-06T13:09:48;9.20;99.90
33460;DHT22;19795;53.160;6.612;2024-03-06T13:12:14;9.20;99.90
33460;DHT22;19795;53.160;6.612;2024-03-06T13:14:39;9.10;99.90
33460;DHT22;19795;53.160;6.612;2024-03-06T13:17:05;9.30;99.90
33460;DHT22;19795;53.160;6.612;2024-03-06T13:19:31;9.40;99.90
33460;DHT22;19795;53.160;6.612;2024-03-06T13:21:57;9.40;99.90
33460;DHT22;19795;53.160;6.612;2024-03-06T13:24:22;9.40;99.90
33460;DHT22;19795;53.160;6.612;2024-03-06T13:26:48;9.60;99.90
33460;DHT22;19795;53.160;6.612;2024-03-06T13:29:14;9.40;99.90
33460;DHT22;19795;53.160;6.612;2024-03-06T13:31:40;9.20;99.90
33460;DHT22;19795;53.160;6.612;2024-03-06T13:34:06;9.10;99.90
33460;DHT22;19795;53.160;6.612;2024-03-06T13:36:31;9.10;99.90
33460;DHT22;19795;53.160;6.612;2024-03-06T13:38:57;9.20;99.90
33460;DHT22;19795;53.160;6.612;2024-03-06T13:41:23;9.20;99.90
33460;DHT22;19795;53.160;6.612;2024-03-06T13:43:49;9.30;99.90
33460;DHT22;19795;53.160;6.612;2024-03-06T13:46:15;9.40;99.90
33460;DHT22;19795;53.160;6.612;2024-03-06T13:48:41;9.70;99.90
33460;DHT22;19795;53.160;6.612;2024-03-06T13:51:06;9.60;99.90
33460;DHT22;19795;53.160;6.612;2024-03-06T13:53:32;9.50;99.90
33460;DHT22;19795;53.160;6.612;2024-03-06T13:55:58;9.50;99.90
33460;DHT22;19795;53.160;6.612;2024-03-06T13:58:24;9.30;99.90
33460;DHT22;19795;53.160;6.612;2024-03-06T14:00:50;9.10;99.90
33460;DHT22;19795;53.160;6.612;2024-03-06T14:03:16;9.20;99.90
33460;DHT22;19795;53.160;6.612;2024-03-06T14:05:42;9.30;99.90
33460;DHT22;19795;53.160;6.612;2024-03-06T14:08:08;9.40;99.90
33460;DHT22;19795;53.160;6.612;2024-03-06T14:10:40;9.30;99.90
33460;DHT22;19795;53.160;6.612;2024-03-06T14:13:06;9.30;99.90
33460;DHT22;19795;53.160;6.612;2024-03-06T14:15:33;9.40;99.90
33460;DHT22;19795;53.160;6.612;2024-03-06T14:17:58;9.40;99.90
33460;DHT22;19795;53.160;6.612;2024-03-06T14:20:24;9.40;99.90
33460;DHT22;19795;53.160;6.612;2024-03-06T14:22:50;9.40;99.90
33460;DHT22;19795;53.160;6.612;2024-03-06T14:25:16;9.40;99.90
33460;DHT22;19795;53.160;6.612;2024-03-06T14:27:42;9.40;99.90
33460;DHT22;19795;53.160;6.612;2024-03-06T14:30:09;9.20;99.90
33460;DHT22;19795;53.160;6.612;2024-03-06T14:32:37;9.10;99.90
33460;DHT22;19795;53.160;6.612;2024-03-06T14:35:04;9.10;99.90
33460;DHT22;19795;53.160;6.612;2024-03-06T14:37:30;9.00;99.90
33460;DHT22;19795;53.160;6.612;2024-03-06T14:39:55;9.20;99.90
33460;DHT22;19795;53.160;6.612;2024-03-06T14:42:21;9.00;99.90
33460;DHT22;19795;53.160;6.612;2024-03-06T14:44:48;9.00;99.90
33460;DHT22;19795;53.160;6.612;2024-03-06T14:47:14;8.90;99.90
33460;DHT22;19795;53.160;6.612;2024-03-06T14:49:43;8.90;99.90
33460;DHT22;19795;53.160;6.612;2024-03-06T14:52:12;8.90;99.90
33460;DHT22;19795;53.160;6.612;2024-03-06T14:54:40;8.90;99.90
33460;DHT22;19795;53.160;6.612;2024-03-06T14:57:07;8.90;99.90
33460;DHT22;19795;53.160;6.612;2024-03-06T14:59:33;8.90;99.90
33460;DHT22;19795;53.160;6.612;2024-03-06T15:01:58;8.90;99.90
33460;DHT22;19795;53.160;6.612;2024-03-06T15:04:24;9.00;99.90
33460;DHT22;19795;53.160;6.612;2024-03-06T15:06:50;9.10;99.90
33460;DHT22;19795;53.160;6.612;2024-03-06T15:09:16;9.20;99.90
33460;DHT22;19795;53.160;6.612;2024-03-06T15:11:47;9.40;99.90
33460;DHT22;19795;53.160;6.612;2024-03-06T15:14:14;9.70;99.90
33460;DHT22;19795;53.160;6.612;2024-03-06T15:16:40;9.80;99.90
33460;DHT22;19795;53.160;6.612;2024-03-06T15:19:06;10.00;99.90
33460;DHT22;19795;53.160;6.612;2024-03-06T15:21:32;10.30;99.90
33460;DHT22;19795;53.160;6.612;2024-03-06T15:23:58;10.40;99.90
33460;DHT22;19795;53.160;6.612;2024-03-06T15:26:23;10.50;99.90
33460;DHT22;19795;53.160;6.612;2024-03-06T15:28:49;10.50;99.90
33460;DHT22;19795;53.160;6.612;2024-03-06T15:31:15;10.20;99.90
33460;DHT22;19795;53.160;6.612;2024-03-06T15:33:40;10.10;99.90
33460;DHT22;19795;53.160;6.612;2024-03-06T15:36:07;10.00;99.90
33460;DHT22;19795;53.160;6.612;2024-03-06T15:38:36;9.80;99.90
33460;DHT22;19795;53.160;6.612;2024-03-06T15:41:02;9.70;99.90
33460;DHT22;19795;53.160;6.612;2024-03-06T15:43:30;9.80;99.90
33460;DHT22;19795;53.160;6.612;2024-03-06T15:45:56;9.70;99.90
33460;DHT22;19795;53.160;6.612;2024-03-06T15:48:24;9.60;99.90
33460;DHT22;19795;53.160;6.612;2024-03-06T15:50:50;9.60;99.90
33460;DHT22;19795;53.160;6.612;2024-03-06T15:53:15;9.40;99.90
33460;DHT22;19795;53.160;6.612;2024-03-06T15:55:41;9.40;99.90
33460;DHT22;19795;53.160;6.612;2024-03-06T15:58:07;9.30;99.90
33460;DHT22;19795;53.160;6.612;2024-03-06T16:00:33;9.20;99.90
33460;DHT22;19795;53.160;6.612;2024-03-06T16:02:58;9.20;99.90
33460;DHT22;19795;53.160;6.612;2024-03-06T16:05:25;9.10;99.90
33460;DHT22;19795;53.160;6.612;2024-03-06T16:07:58;9.00;99.90
33460;DHT22;19795;53.160;6.612;2024-03-06T16:10:25;8.90;99.90
33460;DHT22;19795;53.160;6.612;2024-03-06T16:12:51;8.80;99.90
33460;DHT22;19795;53.160;6.612;2024-03-06T16:15:16;8.70;99.90
33460;DHT22;19795;53.160;6.612;2024-03-06T16:17:42;8.60;99.90
33460;DHT22;19795;53.160;6.612;2024-03-06T16:20:08;8.60;99.90
33460;DHT22;19795;53.160;6.612;2024-03-06T16:22:36;8.50;99.90
33460;DHT22;19795;53.160;6.612;2024-03-06T16:25:02;8.40;99.90
33460;DHT22;19795;53.160;6.612;2024-03-06T16:27:28;8.40;99.90
33460;DHT22;19795;53.160;6.612;2024-03-06T16:29:55;8.30;99.90
33460;DHT22;19795;53.160;6.612;2024-03-06T16:32:21;8.30;99.90
33460;DHT22;19795;53.160;6.612;2024-03-06T16:34:46;8.20;99.90
33460;DHT22;19795;53.160;6.612;2024-03-06T16:37:12;8.10;99.90
33460;DHT22;19795;53.160;6.612;2024-03-06T16:39:38;8.10;99.90
33460;DHT22;19795;53.160;6.612;2024-03-06T16:42:04;8.00;99.90
33460;DHT22;19795;53.160;6.612;2024-03-06T16:44:29;7.90;99.90
33460;DHT22;19795;53.160;6.612;2024-03-06T16:46:55;7.90;99.90
33460;DHT22;19795;53.160;6.612;2024-03-06T16:49:21;7.90;99.90
33460;DHT22;19795;53.160;6.612;2024-03-06T16:51:47;7.90;99.90
33460;DHT22;19795;53.160;6.612;2024-03-06T16:54:13;7.80;99.90
33460;DHT22;19795;53.160;6.612;2024-03-06T16:56:39;7.80;99.90
33460;DHT22;19795;53.160;6.612;2024-03-06T16:59:05;7.80;99.90
33460;DHT22;19795;53.160;6.612;2024-03-06T17:01:32;7.70;99.90
33460;DHT22;19795;53.160;6.612;2024-03-06T17:03:58;7.60;99.90
33460;DHT22;19795;53.160;6.612;2024-03-06T17:06:24;7.50;99.90
33460;DHT22;19795;53.160;6.612;2024-03-06T17:08:50;7.50;99.90
33460;DHT22;19795;53.160;6.612;2024-03-06T17:11:16;7.40;99.90
33460;DHT22;19795;53.160;6.612;2024-03-06T17:13:42;7.30;99.90
33460;DHT22;19795;53.160;6.612;2024-03-06T17:16:09;7.30;99.90
33460;DHT22;19795;53.160;6.612;2024-03-06T17:18:35;7.20;99.90
33460;DHT22;19795;53.160;6.612;2024-03-06T17:21:02;7.20;99.90
33460;DHT22;19795;53.160;6.612;2024-03-06T17:23:31;7.10;99.90
33460;DHT22;19795;53.160;6.612;2024-03-06T17:26:17;7.20;99.90
33460;DHT22;19795;53.160;6.612;2024-03-06T17:28:43;7.10;99.90
33460;DHT22;19795;53.160;6.612;2024-03-06T17:31:11;7.10;99.90
33460;DHT22;19795;53.160;6.612;2024-03-06T17:33:37;7.00;99.90
33460;DHT22;19795;53.160;6.612;2024-03-06T17:36:02;7.00;99.90
33460;DHT22;19795;53.160;6.612;2024-03-06T17:38:36;7.00;99.90
33460;DHT22;19795;53.160;6.612;2024-03-06T17:41:03;6.90;99.90
33460;DHT22;19795;53.160;6.612;2024-03-06T17:43:29;6.90;99.90
33460;DHT22;19795;53.160;6.612;2024-03-06T17:45:55;6.80;99.90
33460;DHT22;19795;53.160;6.612;2024-03-06T17:48:21;6.80;99.90
33460;DHT22;19795;53.160;6.612;2024-03-06T17:50:47;6.80;99.90
33460;DHT22;19795;53.160;6.612;2024-03-06T17:53:36;6.80;99.90
33460;DHT22;19795;53.160;6.612;2024-03-06T17:56:04;6.70;99.90
33460;DHT22;19795;53.160;6.612;2024-03-06T17:58:30;6.60;99.90
33460;DHT22;19795;53.160;6.612;2024-03-06T18:00:56;6.70;99.90
33460;DHT22;19795;53.160;6.612;2024-03-06T18:03:24;6.60;99.90
33460;DHT22;19795;53.160;6.612;2024-03-06T18:05:53;6.60;99.90
33460;DHT22;19795;53.160;6.612;2024-03-06T18:08:21;6.50;99.90
33460;DHT22;19795;53.160;6.612;2024-03-06T18:10:47;6.50;99.90
33460;DHT22;19795;53.160;6.612;2024-03-06T18:13:15;6.50;99.90
33460;DHT22;19795;53.160;6.612;2024-03-06T18:15:41;6.50;99.90
33460;DHT22;19795;53.160;6.612;2024-03-06T18:18:07;6.60;99.90
33460;DHT22;19795;53.160;6.612;2024-03-06T18:20:32;6.60;99.90
33460;DHT22;19795;53.160;6.612;2024-03-06T18:22:58;6.60;99.90
33460;DHT22;19795;53.160;6.612;2024-03-06T18:25:24;6.70;99.90
33460;DHT22;19795;53.160;6.612;2024-03-06T18:27:54;6.70;99.90
33460;DHT22;19795;53.160;6.612;2024-03-06T18:30:19;6.70;99.90
33460;DHT22;19795;53.160;6.612;2024-03-06T18:32:45;6.80;99.90
33460;DHT22;19795;53.160;6.612;2024-03-06T18:35:11;6.80;99.90
33460;DHT22;19795;53.160;6.612;2024-03-06T18:37:37;6.80;99.90
33460;DHT22;19795;53.160;6.612;2024-03-06T18:40:02;6.90;99.90
33460;DHT22;19795;53.160;6.612;2024-03-06T18:42:29;6.90;99.90
33460;DHT22;19795;53.160;6.612;2024-03-06T18:44:55;6.90;99.90
33460;DHT22;19795;53.160;6.612;2024-03-06T18:47:20;6.90;99.90
33460;DHT22;19795;53.160;6.612;2024-03-06T18:49:47;6.90;99.90
33460;DHT22;19795;53.160;6.612;2024-03-06T18:52:13;7.00;99.90
33460;DHT22;19795;53.160;6.612;2024-03-06T18:54:39;6.90;99.90
33460;DHT22;19795;53.160;6.612;2024-03-06T18:57:07;7.00;99.90
33460;DHT22;19795;53.160;6.612;2024-03-06T18:59:36;6.90;99.90
33460;DHT22;19795;53.160;6.612;2024-03-06T19:02:03;6.90;99.90
33460;DHT22;19795;53.160;6.612;2024-03-06T19:04:29;6.90;99.90
33460;DHT22;19795;53.160;6.612;2024-03-06T19:06:54;6.90;99.90
33460;DHT22;19795;53.160;6.612;2024-03-06T19:09:20;6.90;99.90
33460;DHT22;19795;53.160;6.612;2024-03-06T19:11:46;6.90;99.90
33460;DHT22;19795;53.160;6.612;2024-03-06T19:14:13;7.00;99.90
33460;DHT22;19795;53.160;6.612;2024-03-06T19:16:38;7.00;99.90
33460;DHT22;19795;53.160;6.612;2024-03-06T19:19:07;7.00;99.90
33460;DHT22;19795;53.160;6.612;2024-03-06T19:21:33;7.00;99.90
33460;DHT22;19795;53.160;6.612;2024-03-06T19:23:59;7.10;99.90
33460;DHT22;19795;53.160;6.612;2024-03-06T19:26:25;7.00;99.90
33460;DHT22;19795;53.160;6.612;2024-03-06T19:28:51;7.00;99.90
33460;DHT22;19795;53.160;6.612;2024-03-06T19:31:17;7.00;99.90
33460;DHT22;19795;53.160;6.612;2024-03-06T19:33:44;7.00;99.90
33460;DHT22;19795;53.160;6.612;2024-03-06T19:36:09;7.00;99.90
33460;DHT22;19795;53.160;6.612;2024-03-06T19:38:35;7.10;99.90
33460;DHT22;19795;53.160;6.612;2024-03-06T19:41:02;7.00;99.90
33460;DHT22;19795;53.160;6.612;2024-03-06T19:43:27;7.00;99.90
33460;DHT22;19795;53.160;6.612;2024-03-06T19:45:58;6.90;99.90
33460;DHT22;19795;53.160;6.612;2024-03-06T19:48:24;7.00;99.90
33460;DHT22;19795;53.160;6.612;2024-03-06T19:50:50;7.00;99.90
33460;DHT22;19795;53.160;6.612;2024-03-06T19:53:15;7.10;99.90
33460;DHT22;19795;53.160;6.612;2024-03-06T19:55:41;7.00;99.90
33460;DHT22;19795;53.160;6.612;2024-03-06T19:58:07;7.00;99.90
33460;DHT22;19795;53.160;6.612;2024-03-06T20:00:33;7.00;99.90
33460;DHT22;19795;53.160;6.612;2024-03-06T20:02:59;7.00;99.90
33460;DHT22;19795;53.160;6.612;2024-03-06T20:05:25;7.00;99.90
33460;DHT22;19795;53.160;6.612;2024-03-06T20:07:51;7.00;99.90
33460;DHT22;19795;53.160;6.612;2024-03-06T20:10:16;7.00;99.90
33460;DHT22;19795;53.160;6.612;2024-03-06T20:12:42;7.00;99.90
33460;DHT22;19795;53.160;6.612;2024-03-06T20:15:08;7.10;99.90
33460;DHT22;19795;53.160;6.612;2024-03-06T20:17:34;7.00;99.90
33460;DHT22;19795;53.160;6.612;2024-03-06T20:19:59;7.00;99.90
33460;DHT22;19795;53.160;6.612;2024-03-06T20:22:26;7.00;99.90
33460;DHT22;19795;53.160;6.612;2024-03-06T20:24:52;7.00;99.90
33460;DHT22;19795;53.160;6.612;2024-03-06T20:27:18;7.00;99.90
33460;DHT22;19795;53.160;6.612;2024-03-06T20:29:46;7.00;99.90
33460;DHT22;19795;53.160;6.612;2024-03-06T20:32:12;7.00;99.90
33460;DHT22;19795;53.160;6.612;2024-03-06T20:34:40;7.00;99.90
33460;DHT22;19795;53.160;6.612;2024-03-06T20:37:06;7.00;99.90
33460;DHT22;19795;53.160;6.612;2024-03-06T20:39:32;7.00;99.90
33460;DHT22;19795;53.160;6.612;2024-03-06T20:42:02;7.00;99.90
33460;DHT22;19795;53.160;6.612;2024-03-06T20:44:29;7.00;99.90
33460;DHT22;19795;53.160;6.612;2024-03-06T20:46:55;6.90;99.90
33460;DHT22;19795;53.160;6.612;2024-03-06T20:49:21;6.90;99.90
33460;DHT22;19795;53.160;6.612;2024-03-06T20:51:50;7.00;99.90
33460;DHT22;19795;53.160;6.612;2024-03-06T20:54:16;6.60;99.90
33460;DHT22;19795;53.160;6.612;2024-03-06T20:56:42;6.90;99.90
33460;DHT22;19795;53.160;6.612;2024-03-06T20:59:08;6.90;99.90
33460;DHT22;19795;53.160;6.612;2024-03-06T21:01:34;6.90;99.90
33460;DHT22;19795;53.160;6.612;2024-03-06T21:04:00;6.90;99.90
33460;DHT22;19795;53.160;6.612;2024-03-06T21:06:34;6.80;99.90
33460;DHT22;19795;53.160;6.612;2024-03-06T21:09:00;6.80;99.90
33460;DHT22;19795;53.160;6.612;2024-03-06T21:11:26;6.90;99.90
